createdAt,value
2023-02-01T00:01:21.835Z,73.14
2023-02-01T00:03:50.035Z,73.26
2023-02-01T00:06:17.973Z,73.35
2023-02-01T00:08:46.597Z,73.68
2023-02-01T00:11:14.800Z,73.54
2023-02-01T00:13:42.865Z,73.53
2023-02-01T00:16:19.949Z,73.56
2023-02-01T00:18:50.092Z,73.64
2023-02-01T00:21:21.141Z,73.72
2023-02-01T00:23:49.482Z,73.79
2023-02-01T00:26:23.829Z,73.79
2023-02-01T00:28:52.008Z,73.76
2023-02-01T00:31:19.950Z,73.84
2023-02-01T00:33:49.418Z,73.99
2023-02-01T00:36:18.037Z,74.16
2023-02-01T00:38:46.273Z,74.34
2023-02-01T00:41:19.499Z,74.52
2023-02-01T00:43:49.016Z,74.69
2023-02-01T00:46:18.533Z,74.68
2023-02-01T00:48:46.975Z,74.69
2023-02-01T00:51:21.118Z,74.73
2023-02-01T00:53:49.928Z,74.72
2023-02-01T00:56:17.976Z,74.85
2023-02-01T00:58:46.403Z,75.03
2023-02-01T01:01:18.681Z,74.97
2023-02-01T01:03:56.490Z,75.01
2023-02-01T01:06:27.955Z,74.98
2023-02-01T01:08:58.431Z,75.18
2023-02-01T01:11:29.060Z,75.44
2023-02-01T01:13:59.434Z,75.63
2023-02-01T01:16:29.922Z,75.83
2023-02-01T01:18:58.585Z,75.95
2023-02-01T01:21:27.669Z,75.95
2023-02-01T01:23:56.419Z,76.13
2023-02-01T01:26:27.190Z,76.24
2023-02-01T01:28:59.731Z,76.26
2023-02-01T01:31:28.268Z,76.20
2023-02-01T01:33:58.214Z,76.26
2023-02-01T01:36:27.945Z,76.31
2023-02-01T01:38:56.257Z,76.40
2023-02-01T01:41:27.756Z,76.32
2023-02-01T01:43:59.723Z,76.38
2023-02-01T01:46:42.053Z,76.33
2023-02-01T01:49:15.933Z,76.47
2023-02-01T01:51:56.925Z,76.56
2023-02-01T01:54:27.285Z,76.44
2023-02-01T01:57:01.322Z,76.56
2023-02-01T01:59:32.475Z,76.64
2023-02-01T02:02:01.082Z,76.81
2023-02-01T02:04:29.949Z,76.77
2023-02-01T02:07:06.006Z,76.85
2023-02-01T02:09:34.876Z,77.06
2023-02-01T02:12:03.126Z,77.17
2023-02-01T02:14:32.507Z,77.13
2023-02-01T02:17:25.284Z,77.23
2023-02-01T02:20:19.947Z,77.28
2023-02-01T02:23:30.799Z,77.30
2023-02-01T02:26:07.713Z,77.37
2023-02-01T02:29:00.498Z,77.26
2023-02-01T02:32:25.850Z,77.35
2023-02-01T02:34:59.263Z,77.60
2023-02-01T02:37:32.661Z,77.69
2023-02-01T02:40:38.193Z,77.67
2023-02-01T02:43:36.200Z,77.86
2023-02-01T02:46:42.320Z,77.98
2023-02-01T02:49:24.994Z,78.08
2023-02-01T02:52:37.007Z,78.25
2023-02-01T02:55:09.878Z,78.35
2023-02-01T02:58:00.518Z,78.36
2023-02-01T03:00:51.552Z,78.34
2023-02-01T03:03:38.855Z,78.39
2023-02-01T03:06:17.043Z,78.41
2023-02-01T03:08:46.564Z,78.30
2023-02-01T03:11:16.232Z,78.17
2023-02-01T03:14:00.089Z,78.16
2023-02-01T03:16:41.279Z,78.06
2023-02-01T03:19:35.200Z,77.93
2023-02-01T03:22:09.134Z,77.75
2023-02-01T03:24:45.077Z,77.71
2023-02-01T03:27:20.728Z,77.40
2023-02-01T03:30:28.111Z,77.36
2023-02-01T03:33:00.757Z,77.40
2023-02-01T03:36:15.377Z,77.61
2023-02-01T03:38:58.344Z,77.86
2023-02-01T03:41:43.527Z,77.91
2023-02-01T03:44:30.681Z,78.02
2023-02-01T03:47:10.785Z,78.06
2023-02-01T03:49:46.480Z,78.14
2023-02-01T03:52:23.339Z,78.09
2023-02-01T03:54:53.659Z,78.00
2023-02-01T03:57:27.084Z,78.11
2023-02-01T04:00:06.675Z,78.12
2023-02-01T04:02:42.012Z,78.29
2023-02-01T04:05:10.660Z,78.39
2023-02-01T04:07:41.682Z,78.47
2023-02-01T04:10:11.288Z,78.61
2023-02-01T04:12:40.789Z,78.59
2023-02-01T04:15:09.447Z,78.66
2023-02-01T04:17:40.701Z,78.61
2023-02-01T04:20:10.019Z,78.58
2023-02-01T04:22:38.244Z,78.63
2023-02-01T04:25:06.936Z,78.53
2023-02-01T04:27:35.561Z,78.54
2023-02-01T04:30:05.155Z,78.64
2023-02-01T04:32:33.196Z,78.57
2023-02-01T04:35:01.186Z,78.53
2023-02-01T04:37:29.945Z,78.38
2023-02-01T04:39:58.668Z,78.38
2023-02-01T04:42:26.761Z,78.14
2023-02-01T04:44:54.754Z,78.20
2023-02-01T04:47:22.976Z,78.19
2023-02-01T04:49:50.911Z,78.13
2023-02-01T04:52:18.769Z,78.02
2023-02-01T04:54:46.890Z,77.96
2023-02-01T04:57:15.997Z,77.82
2023-02-01T04:59:44.555Z,77.69
2023-02-01T05:02:12.546Z,77.43
2023-02-01T05:04:40.530Z,77.52
2023-02-01T05:07:08.991Z,77.64
2023-02-01T05:09:36.886Z,77.54
2023-02-01T05:12:23.787Z,77.54
2023-02-01T05:14:51.889Z,77.53
2023-02-01T05:17:19.879Z,77.42
2023-02-01T05:19:48.464Z,77.45
2023-02-01T05:22:16.621Z,77.34
2023-02-01T05:24:45.320Z,76.92
2023-02-01T05:27:13.717Z,76.98
2023-02-01T05:29:41.747Z,77.01
2023-02-01T05:32:21.628Z,77.11
2023-02-01T05:34:50.814Z,77.17
2023-02-01T05:37:19.306Z,77.13
2023-02-01T05:39:47.541Z,80.64
2023-02-01T05:42:16.140Z,77.18
2023-02-01T05:44:44.080Z,76.06
2023-02-01T05:47:13.613Z,75.56
2023-02-01T05:49:41.904Z,75.32
2023-02-01T05:52:09.678Z,75.15
2023-02-01T05:54:38.232Z,75.18
2023-02-01T05:57:06.177Z,75.05
2023-02-01T05:59:34.242Z,74.92
2023-02-01T06:02:02.744Z,74.89
2023-02-01T06:04:31.072Z,75.46
2023-02-01T06:06:59.389Z,74.96
2023-02-01T06:09:27.430Z,75.04
2023-02-01T06:11:55.778Z,74.91
2023-02-01T06:14:23.586Z,74.87
2023-02-01T06:16:52.084Z,75.12
2023-02-01T06:19:20.403Z,75.25
2023-02-01T06:21:49.058Z,75.46
2023-02-01T06:24:17.103Z,75.73
2023-02-01T06:26:45.487Z,75.56
2023-02-01T06:29:14.025Z,75.55
2023-02-01T06:31:44.021Z,75.45
2023-02-01T06:34:12.373Z,75.35
2023-02-01T06:36:41.520Z,75.44
2023-02-01T06:39:09.548Z,75.20
2023-02-01T06:41:37.665Z,76.01
2023-02-01T06:44:05.892Z,75.35
2023-02-01T06:46:33.962Z,74.99
2023-02-01T06:49:02.004Z,74.84
2023-02-01T06:51:31.133Z,74.93
2023-02-01T06:53:59.453Z,74.80
2023-02-01T06:56:28.453Z,74.64
2023-02-01T06:58:56.551Z,74.63
2023-02-01T07:01:24.660Z,74.54
2023-02-01T07:03:52.988Z,74.33
2023-02-01T07:06:21.619Z,74.08
2023-02-01T07:08:50.482Z,73.75
2023-02-01T07:11:19.979Z,73.57
2023-02-01T07:13:48.775Z,73.44
2023-02-01T07:16:19.460Z,73.46
2023-02-01T07:18:47.645Z,73.38
2023-02-01T07:21:15.909Z,73.23
2023-02-01T07:23:44.282Z,73.28
2023-02-01T07:26:14.236Z,73.33
2023-02-01T07:28:43.580Z,73.26
2023-02-01T07:31:16.294Z,73.36
2023-02-01T07:33:44.748Z,73.21
2023-02-01T07:36:15.560Z,72.98
2023-02-01T07:38:44.515Z,72.52
2023-02-01T07:41:12.788Z,72.44
2023-02-01T07:43:41.238Z,72.61
2023-02-01T07:46:11.333Z,72.59
2023-02-01T07:48:39.669Z,72.68
2023-02-01T07:51:13.997Z,72.61
2023-02-01T07:53:43.197Z,72.55
2023-02-01T07:56:19.436Z,72.45
2023-02-01T07:58:51.829Z,72.35
2023-02-01T08:01:25.638Z,72.32
2023-02-01T08:04:04.543Z,72.03
2023-02-01T08:06:35.833Z,71.88
2023-02-01T08:09:05.267Z,71.77
2023-02-01T08:11:33.562Z,71.67
2023-02-01T08:14:02.234Z,71.79
2023-02-01T08:16:30.299Z,71.38
2023-02-01T08:18:58.806Z,71.35
2023-02-01T08:21:40.212Z,71.16
2023-02-01T08:24:10.105Z,70.92
2023-02-01T08:26:38.359Z,70.96
2023-02-01T08:29:09.149Z,70.70
2023-02-01T08:31:41.573Z,70.43
2023-02-01T08:34:10.898Z,70.04
2023-02-01T08:36:39.312Z,69.65
2023-02-01T08:39:10.216Z,69.60
2023-02-01T08:41:39.406Z,69.37
2023-02-01T08:44:07.655Z,69.39
2023-02-01T08:46:35.776Z,69.42
2023-02-01T08:49:03.909Z,69.35
2023-02-01T08:51:31.934Z,68.92
2023-02-01T08:53:59.926Z,68.85
2023-02-01T08:56:28.234Z,68.94
2023-02-01T08:58:56.375Z,68.73
2023-02-01T09:01:24.492Z,69.05
2023-02-01T09:03:52.698Z,69.05
2023-02-01T09:06:20.979Z,68.87
2023-02-01T09:08:48.988Z,68.48
2023-02-01T09:11:20.555Z,68.58
2023-02-01T09:13:49.676Z,68.72
2023-02-01T09:16:17.984Z,68.83
2023-02-01T09:18:55.816Z,68.77
2023-02-01T09:21:30.512Z,68.65
2023-02-01T09:23:58.942Z,68.17
2023-02-01T09:26:32.697Z,67.98
2023-02-01T09:29:01.893Z,67.99
2023-02-01T09:31:31.075Z,67.85
2023-02-01T09:33:59.300Z,67.31
2023-02-01T09:36:30.276Z,66.92
2023-02-01T09:39:00.773Z,66.83
2023-02-01T09:41:58.614Z,67.07
2023-02-01T09:44:44.160Z,66.50
2023-02-01T09:47:16.263Z,65.82
2023-02-01T09:49:59.234Z,65.55
2023-02-01T09:53:00.482Z,65.58
2023-02-01T09:55:37.956Z,65.96
2023-02-01T09:58:32.348Z,65.32
2023-02-01T10:01:03.630Z,63.79
2023-02-01T10:03:35.515Z,63.66
2023-02-01T10:06:34.454Z,63.36
2023-02-01T10:09:15.507Z,62.81
2023-02-01T10:11:52.779Z,62.73
2023-02-01T10:14:20.806Z,62.50
2023-02-01T10:16:59.328Z,62.07
2023-02-01T10:19:27.523Z,62.02
2023-02-01T10:22:48.316Z,62.52
2023-02-01T10:25:33.182Z,61.90
2023-02-01T10:28:03.039Z,62.22
2023-02-01T10:30:45.453Z,62.25
2023-02-01T10:33:22.637Z,62.32
2023-02-01T10:35:57.793Z,62.68
2023-02-01T10:38:31.061Z,62.67
2023-02-01T10:41:14.597Z,62.48
2023-02-01T10:43:44.440Z,61.94
2023-02-01T10:46:12.711Z,61.94
2023-02-01T10:48:41.955Z,61.67
2023-02-01T10:51:24.010Z,61.99
2023-02-01T10:53:59.654Z,61.67
2023-02-01T10:56:30.012Z,61.73
2023-02-01T10:59:19.927Z,61.73
2023-02-01T11:01:59.757Z,62.05
2023-02-01T11:04:33.297Z,61.64
2023-02-01T11:07:27.285Z,61.23
2023-02-01T11:09:57.468Z,61.23
2023-02-01T11:12:33.239Z,61.63
2023-02-01T11:15:21.470Z,61.91
2023-02-01T11:17:52.983Z,61.83
2023-02-01T11:20:35.202Z,61.63
2023-02-01T11:23:04.430Z,61.58
2023-02-01T11:25:37.051Z,61.86
2023-02-01T11:28:06.237Z,61.82
2023-02-01T11:30:41.856Z,61.90
2023-02-01T11:33:21.412Z,61.77
2023-02-01T11:35:50.457Z,62.38
2023-02-01T11:38:24.243Z,62.62
2023-02-01T11:40:52.387Z,62.95
2023-02-01T11:43:30.015Z,63.47
2023-02-01T11:46:03.253Z,63.42
2023-02-01T11:48:34.060Z,63.61
2023-02-01T11:51:24.439Z,63.49
2023-02-01T11:54:11.403Z,63.68
2023-02-01T11:57:06.740Z,63.85
2023-02-01T12:00:06.975Z,63.92
2023-02-01T12:03:04.532Z,63.57
2023-02-01T12:05:36.027Z,63.60
2023-02-01T12:08:35.250Z,63.79
2023-02-01T12:11:32.673Z,63.77
2023-02-01T12:14:21.017Z,64.13
2023-02-01T12:17:07.937Z,64.04
2023-02-01T12:19:39.447Z,64.17
2023-02-01T12:22:36.044Z,64.51
2023-02-01T12:25:32.311Z,65.01
2023-02-01T12:28:30.848Z,65.25
2023-02-01T12:31:09.749Z,65.34
2023-02-01T12:33:47.118Z,65.44
2023-02-01T12:36:40.805Z,65.19
2023-02-01T12:39:25.940Z,65.21
2023-02-01T12:42:04.704Z,65.01
2023-02-01T12:44:44.545Z,65.03
2023-02-01T12:47:37.625Z,65.49
2023-02-01T12:50:37.613Z,65.50
2023-02-01T12:53:13.711Z,65.42
2023-02-01T12:55:51.517Z,65.63
2023-02-01T12:58:43.028Z,65.32
2023-02-01T13:01:23.446Z,64.89
2023-02-01T13:04:11.036Z,64.71
2023-02-01T13:06:48.445Z,64.64
2023-02-01T13:09:48.457Z,64.79
2023-02-01T13:12:25.863Z,64.98
2023-02-01T13:15:00.204Z,64.93
2023-02-01T13:17:34.723Z,64.66
2023-02-01T13:20:27.291Z,64.79
2023-02-01T13:23:07.005Z,64.87
2023-02-01T13:25:41.749Z,64.82
2023-02-01T13:28:24.163Z,64.65
2023-02-01T13:31:20.103Z,64.73
2023-02-01T13:34:04.650Z,64.85
2023-02-01T13:37:01.032Z,64.73
2023-02-01T13:39:41.261Z,65.08
2023-02-01T13:42:21.435Z,65.08
2023-02-01T13:44:51.993Z,65.41
2023-02-01T13:47:27.481Z,65.22
2023-02-01T13:49:59.615Z,65.17
2023-02-01T13:52:41.327Z,64.91
2023-02-01T13:55:22.216Z,65.09
2023-02-01T13:57:59.955Z,65.77
2023-02-01T14:00:39.378Z,66.41
2023-02-01T14:03:07.471Z,66.72
2023-02-01T14:05:35.982Z,68.56
2023-02-01T14:08:10.665Z,67.70
2023-02-01T14:10:59.647Z,66.45
2023-02-01T14:13:39.347Z,66.44
2023-02-01T14:16:07.677Z,66.44
2023-02-01T14:18:35.907Z,65.91
2023-02-01T14:21:23.747Z,66.62
2023-02-01T14:23:55.001Z,67.00
2023-02-01T14:26:27.161Z,67.25
2023-02-01T14:29:00.656Z,67.39
2023-02-01T14:31:55.558Z,66.82
2023-02-01T14:34:33.073Z,66.69
2023-02-01T14:37:08.231Z,66.74
2023-02-01T14:39:47.580Z,66.48
2023-02-01T14:42:15.777Z,66.66
2023-02-01T14:44:58.900Z,66.93
2023-02-01T14:47:30.780Z,67.27
2023-02-01T14:50:05.667Z,67.63
2023-02-01T14:52:43.675Z,68.72
2023-02-01T14:55:26.788Z,68.48
2023-02-01T14:57:59.153Z,68.72
2023-02-01T15:00:30.820Z,69.40
2023-02-01T15:03:25.027Z,70.25
2023-02-01T15:05:59.009Z,70.60
2023-02-01T15:08:31.431Z,71.00
2023-02-01T15:11:05.012Z,71.31
2023-02-01T15:13:33.549Z,71.13
2023-02-01T15:16:24.030Z,71.76
2023-02-01T15:19:09.727Z,72.58
2023-02-01T15:21:48.502Z,72.87
2023-02-01T15:24:28.234Z,73.42
2023-02-01T15:27:03.028Z,73.77
2023-02-01T15:29:33.496Z,73.95
2023-02-01T15:32:02.019Z,74.26
2023-02-01T15:34:50.867Z,75.10
2023-02-01T15:37:23.212Z,75.50
2023-02-01T15:40:08.930Z,75.91
2023-02-01T15:42:50.839Z,76.70
2023-02-01T15:45:21.691Z,77.41
2023-02-01T15:47:51.767Z,78.05
2023-02-01T15:50:23.277Z,78.41
2023-02-01T15:52:56.762Z,78.85
2023-02-01T15:55:31.864Z,78.98
2023-02-01T15:58:00.329Z,78.94
2023-02-01T16:00:34.942Z,78.91
2023-02-01T16:03:24.584Z,78.88
2023-02-01T16:06:01.879Z,78.95
2023-02-01T16:08:32.977Z,79.07
2023-02-01T16:11:10.213Z,79.10
2023-02-01T16:13:38.457Z,79.04
2023-02-01T16:16:10.178Z,79.07
2023-02-01T16:18:38.044Z,79.01
2023-02-01T16:21:06.181Z,78.18
2023-02-01T16:23:34.332Z,77.49
2023-02-01T16:26:02.923Z,77.55
2023-02-01T16:28:30.806Z,77.64
2023-02-01T16:30:59.551Z,77.34
2023-02-01T16:33:27.961Z,77.32
2023-02-01T16:36:01.025Z,77.42
2023-02-01T16:38:29.220Z,79.25
2023-02-01T16:40:58.648Z,79.46
2023-02-01T16:43:27.396Z,78.08
2023-02-01T16:46:00.215Z,77.61
2023-02-01T16:48:31.033Z,77.47
2023-02-01T16:51:03.883Z,77.62
2023-02-01T16:53:36.578Z,77.65
2023-02-01T16:56:22.853Z,77.71
2023-02-01T16:58:51.513Z,77.44
2023-02-01T17:01:20.436Z,77.29
2023-02-01T17:03:50.046Z,77.09
2023-02-01T17:06:21.119Z,76.98
2023-02-01T17:08:54.530Z,76.81
2023-02-01T17:11:22.625Z,76.78
2023-02-01T17:13:50.828Z,77.01
2023-02-01T17:16:18.817Z,77.15
2023-02-01T17:19:11.902Z,77.23
2023-02-01T17:21:43.939Z,77.19
2023-02-01T17:24:16.998Z,77.15
2023-02-01T17:26:45.716Z,77.27
2023-02-01T17:29:14.182Z,77.11
2023-02-01T17:31:46.210Z,76.91
2023-02-01T17:34:17.274Z,77.01
2023-02-01T17:36:47.182Z,77.30
2023-02-01T17:39:36.320Z,78.33
2023-02-01T17:42:05.784Z,79.22
2023-02-01T17:44:33.954Z,79.88
2023-02-01T17:47:02.172Z,80.45
2023-02-01T17:49:30.059Z,80.39
2023-02-01T17:51:58.339Z,80.18
2023-02-01T17:54:26.972Z,80.05
2023-02-01T17:56:55.204Z,79.95
2023-02-01T17:59:23.109Z,79.79
2023-02-01T18:01:51.996Z,80.10
2023-02-01T18:04:21.694Z,80.24
2023-02-01T18:06:49.977Z,79.46
2023-02-01T18:09:18.021Z,79.29
2023-02-01T18:11:46.799Z,79.44
2023-02-01T18:14:15.045Z,79.63
2023-02-01T18:16:43.084Z,79.53
2023-02-01T18:19:11.106Z,79.63
2023-02-01T18:21:43.457Z,79.68
2023-02-01T18:24:16.176Z,79.78
2023-02-01T18:26:44.312Z,79.76
2023-02-01T18:29:12.506Z,79.86
2023-02-01T18:31:47.067Z,79.99
2023-02-01T18:34:21.362Z,79.96
2023-02-01T18:36:50.333Z,79.91
2023-02-01T18:39:18.407Z,80.02
2023-02-01T18:41:49.162Z,79.88
2023-02-01T18:44:17.324Z,79.83
2023-02-01T18:46:45.771Z,79.71
2023-02-01T18:49:18.077Z,79.69
2023-02-01T18:51:46.738Z,79.67
2023-02-01T18:54:14.890Z,79.74
2023-02-01T18:56:43.954Z,79.79
2023-02-01T18:59:12.111Z,79.91
2023-02-01T19:01:40.602Z,79.94
2023-02-01T19:04:15.595Z,79.78
2023-02-01T19:06:52.387Z,79.94
2023-02-01T19:09:20.586Z,80.15
2023-02-01T19:11:49.117Z,80.21
2023-02-01T19:14:17.053Z,80.43
2023-02-01T19:16:45.394Z,80.40
2023-02-01T19:19:13.421Z,80.54
2023-02-01T19:21:41.495Z,80.58
2023-02-01T19:24:09.500Z,80.61
2023-02-01T19:26:37.818Z,80.63
2023-02-01T19:29:06.511Z,80.73
2023-02-01T19:31:34.508Z,80.66
2023-02-01T19:34:03.001Z,80.77
2023-02-01T19:36:30.943Z,80.86
2023-02-01T19:38:59.171Z,81.00
2023-02-01T19:41:27.066Z,81.05
2023-02-01T19:43:55.123Z,81.04
2023-02-01T19:46:23.140Z,80.98
2023-02-01T19:48:51.533Z,80.97
2023-02-01T19:51:19.610Z,80.92
2023-02-01T19:53:48.199Z,81.01
2023-02-01T19:56:16.517Z,81.04
2023-02-01T19:58:44.992Z,81.11
2023-02-01T20:01:13.341Z,81.18
2023-02-01T20:03:41.629Z,81.29
2023-02-01T20:06:10.294Z,81.24
2023-02-01T20:08:38.408Z,81.22
2023-02-01T20:11:08.139Z,81.18
2023-02-01T20:13:38.716Z,81.32
2023-02-01T20:16:27.140Z,81.20
2023-02-01T20:18:56.410Z,81.31
2023-02-01T20:21:25.065Z,81.34
2023-02-01T20:23:53.267Z,81.34
2023-02-01T20:26:24.752Z,81.35
2023-02-01T20:28:53.190Z,81.47
2023-02-01T20:31:24.942Z,81.51
2023-02-01T20:33:52.983Z,81.39
2023-02-01T20:36:21.336Z,81.48
2023-02-01T20:38:49.153Z,81.57
2023-02-01T20:41:17.412Z,81.64
2023-02-01T20:43:46.240Z,81.72
2023-02-01T20:46:15.464Z,81.71
2023-02-01T20:48:45.615Z,81.74
2023-02-01T20:51:15.544Z,81.79
2023-02-01T20:53:44.684Z,81.72
2023-02-01T20:56:13.960Z,81.67
2023-02-01T20:58:43.711Z,81.38
2023-02-01T21:01:12.364Z,81.40
2023-02-01T21:03:40.608Z,81.23
2023-02-01T21:06:11.648Z,81.19
2023-02-01T21:08:41.757Z,81.11
2023-02-01T21:11:12.840Z,81.18
2023-02-01T21:13:44.453Z,80.97
2023-02-01T21:16:14.476Z,80.80
2023-02-01T21:18:42.810Z,80.78
2023-02-01T21:21:13.746Z,80.78
2023-02-01T21:23:48.678Z,80.61
2023-02-01T21:26:19.175Z,80.54
2023-02-01T21:28:48.707Z,80.50
2023-02-01T21:31:18.353Z,80.52
2023-02-01T21:33:47.019Z,80.44
2023-02-01T21:36:19.690Z,80.45
2023-02-01T21:38:50.927Z,80.20
2023-02-01T21:41:39.886Z,80.14
2023-02-01T21:44:09.305Z,79.88
2023-02-01T21:46:37.285Z,79.73
2023-02-01T21:49:07.021Z,79.61
2023-02-01T21:51:38.259Z,79.50
2023-02-01T21:54:07.718Z,79.45
2023-02-01T21:56:36.772Z,79.37
2023-02-01T21:59:05.021Z,79.26
2023-02-01T22:01:33.510Z,79.34
2023-02-01T22:04:01.627Z,79.35
2023-02-01T22:06:39.581Z,79.28
2023-02-01T22:09:13.190Z,79.36
2023-02-01T22:11:41.169Z,79.43
2023-02-01T22:14:09.815Z,79.43
2023-02-01T22:16:37.881Z,79.64
2023-02-01T22:19:06.672Z,79.77
2023-02-01T22:21:35.149Z,79.67
2023-02-01T22:24:03.136Z,79.47
2023-02-01T22:26:31.582Z,79.43
2023-02-01T22:28:59.592Z,79.44
2023-02-01T22:31:27.963Z,79.31
2023-02-01T22:33:56.943Z,79.14
2023-02-01T22:36:25.341Z,79.09
2023-02-01T22:38:54.330Z,79.08
2023-02-01T22:41:22.292Z,79.21
2023-02-01T22:43:50.709Z,79.12
2023-02-01T22:46:22.722Z,78.99
2023-02-01T22:48:51.950Z,78.87
2023-02-01T22:51:23.543Z,78.93
2023-02-01T22:53:59.431Z,78.81
2023-02-01T22:56:32.712Z,78.75
2023-02-01T22:59:04.311Z,78.55
2023-02-01T23:01:33.777Z,78.55
2023-02-01T23:04:05.884Z,78.64
2023-02-01T23:06:34.692Z,78.41
2023-02-01T23:09:11.639Z,78.37
2023-02-01T23:11:40.149Z,78.40
2023-02-01T23:14:08.893Z,78.33
2023-02-01T23:16:38.326Z,78.27
2023-02-01T23:19:06.544Z,78.40
2023-02-01T23:21:34.486Z,78.43
2023-02-01T23:24:04.976Z,78.47
2023-02-01T23:26:34.377Z,78.43
2023-02-01T23:29:03.453Z,78.50
2023-02-01T23:31:34.573Z,78.46
2023-02-01T23:34:04.065Z,78.27
2023-02-01T23:36:33.762Z,78.18
2023-02-01T23:39:02.177Z,78.04
2023-02-01T23:41:31.749Z,77.79
2023-02-01T23:44:00.132Z,77.72
2023-02-01T23:46:37.333Z,77.75
2023-02-01T23:49:07.532Z,77.82
2023-02-01T23:51:36.617Z,77.65
2023-02-01T23:54:05.484Z,77.42
2023-02-01T23:56:39.832Z,77.28
2023-02-01T23:59:13.500Z,77.25
